Time;durP1;ratioP1;P1;durP2;ratioP2;P2;SDS_P1;SDS_P2;PMS_P1;PMS_P2;Temp;Humidity;BMP_temperature;BMP_pressure;BME280_temperature;BME280_humidity;BME280_pressure;Samples;Min_cycle;Max_cycle;Signal;HPM_P1;HPM_P2
2022/06/28 00:00:13;;;;;;;14.70;1.90;;;14.50;99.90;;;;;;5073785;28;20093;-58
2022/06/28 00:02:40;;;;;;;9.32;2.33;;;14.50;99.90;;;;;;5078716;28;20056;-57
2022/06/28 00:05:08;;;;;;;7.20;1.73;;;14.40;99.90;;;;;;5070032;28;20040;-57
2022/06/28 00:07:35;;;;;;;11.80;1.63;;;14.40;99.90;;;;;;5076641;28;20136;-57
2022/06/28 00:10:02;;;;;;;7.88;1.67;;;14.40;99.90;;;;;;5072512;28;20079;-59
2022/06/28 00:12:29;;;;;;;7.50;2.00;;;14.40;99.90;;;;;;5112850;28;20378;-57
2022/06/28 00:17:42;;;;;;;4.78;1.23;;;14.30;99.90;;;;;;5075800;28;20079;-57
2022/06/28 00:20:09;;;;;;;7.65;1.98;;;14.20;99.90;;;;;;5074105;28;20044;-58
2022/06/28 00:22:37;;;;;;;7.80;2.22;;;14.20;99.90;;;;;;5081031;28;20177;-57
2022/06/28 00:25:04;;;;;;;12.05;2.17;;;14.20;99.90;;;;;;5080018;28;20047;-57
2022/06/28 00:27:31;;;;;;;5.50;1.65;;;14.10;99.90;;;;;;5072278;28;20147;-56
2022/06/28 00:29:58;;;;;;;9.85;1.88;;;14.20;99.90;;;;;;5077573;28;20138;-53
2022/06/28 00:32:33;;;;;;;11.03;1.76;;;14.10;99.90;;;;;;5012670;28;10001281;-57
2022/06/28 00:35:00;;;;;;;11.38;2.28;;;14.10;99.90;;;;;;5086608;28;20385;-54
2022/06/28 00:37:27;;;;;;;7.95;2.20;;;14.00;99.90;;;;;;5072829;28;20144;-57
2022/06/28 00:39:54;;;;;;;9.23;2.20;;;14.00;99.90;;;;;;5078351;28;20091;-57
2022/06/28 00:42:21;;;;;;;14.05;2.67;;;14.00;99.90;;;;;;5082580;28;20044;-57
2022/06/28 00:44:48;;;;;;;9.55;1.55;;;13.90;99.90;;;;;;5079762;28;20055;-57
2022/06/28 00:47:15;;;;;;;11.52;1.88;;;14.00;99.90;;;;;;5078446;28;20090;-57
2022/06/28 00:49:42;;;;;;;8.82;1.70;;;13.90;99.90;;;;;;5082553;28;20135;-58
2022/06/28 00:52:09;;;;;;;13.00;2.58;;;13.90;99.90;;;;;;5078767;28;20078;-56
2022/06/28 00:54:36;;;;;;;13.40;2.13;;;13.90;99.90;;;;;;5083725;28;20519;-56
2022/06/28 00:57:04;;;;;;;10.30;2.22;;;13.80;99.90;;;;;;5078781;28;20075;-55
2022/06/28 00:59:31;;;;;;;10.27;1.90;;;13.80;99.90;;;;;;5078173;28;20083;-51
2022/06/28 01:01:58;;;;;;;12.77;2.63;;;13.80;99.90;;;;;;5081631;28;20132;-57
2022/06/28 01:04:25;;;;;;;7.55;2.20;;;13.80;99.90;;;;;;5080439;28;20049;-57
2022/06/28 01:06:52;;;;;;;6.10;1.88;;;13.80;99.90;;;;;;5082399;28;20105;-57
2022/06/28 01:09:19;;;;;;;14.05;2.50;;;13.70;99.90;;;;;;5075931;28;20131;-57
2022/06/28 01:11:46;;;;;;;7.68;2.03;;;13.70;99.90;;;;;;5076344;28;20411;-57
2022/06/28 01:14:13;;;;;;;14.70;2.70;;;13.70;99.90;;;;;;5085051;28;20048;-57
2022/06/28 01:16:40;;;;;;;5.47;1.75;;;13.60;99.90;;;;;;5080661;28;20091;-57
2022/06/28 01:19:07;;;;;;;15.70;2.60;;;13.50;99.90;;;;;;5073750;28;20140;-58
2022/06/28 01:21:35;;;;;;;15.98;2.15;;;13.50;99.90;;;;;;5080256;28;20049;-57
2022/06/28 01:24:02;;;;;;;15.90;2.20;;;13.50;99.90;;;;;;5085073;28;20445;-56
2022/06/28 01:26:30;;;;;;;7.20;1.90;;;13.60;99.90;;;;;;5079088;28;20131;-57
2022/06/28 01:28:57;;;;;;;13.63;2.10;;;13.50;99.90;;;;;;5076160;28;20059;-56
2022/06/28 01:31:24;;;;;;;12.43;1.98;;;13.50;99.90;;;;;;5080203;28;20131;-57
2022/06/28 01:33:52;;;;;;;5.18;1.83;;;13.50;99.90;;;;;;5082521;28;20298;-54
2022/06/28 01:36:19;;;;;;;6.85;2.10;;;13.50;99.90;;;;;;5078206;28;20130;-56
2022/06/28 01:38:46;;;;;;;11.07;2.00;;;13.50;99.90;;;;;;5079389;28;20275;-55
2022/06/28 01:43:59;;;;;;;8.40;1.90;;;13.40;99.90;;;;;;5080825;28;20078;-56
2022/06/28 01:46:26;;;;;;;12.20;2.30;;;13.40;99.90;;;;;;5077026;28;20076;-57
2022/06/28 01:48:54;;;;;;;6.85;1.88;;;13.40;99.90;;;;;;5081051;28;20044;-55
2022/06/28 01:51:21;;;;;;;9.43;1.77;;;13.40;99.90;;;;;;5081213;28;20071;-57
2022/06/28 01:53:48;;;;;;;12.70;2.05;;;13.40;99.90;;;;;;5084214;28;20055;-56
2022/06/28 01:56:16;;;;;;;9.05;1.77;;;13.40;99.90;;;;;;5079187;28;20037;-57
2022/06/28 01:58:42;;;;;;;12.65;2.38;;;13.40;99.90;;;;;;5083254;28;20040;-56
2022/06/28 02:01:09;;;;;;;11.95;2.75;;;13.40;99.90;;;;;;5086209;28;20072;-57
2022/06/28 02:03:36;;;;;;;11.73;2.17;;;13.40;99.90;;;;;;5071649;28;20127;-56
2022/06/28 02:06:03;;;;;;;7.57;2.00;;;13.30;99.90;;;;;;5083506;28;20468;-56
2022/06/28 02:08:30;;;;;;;6.18;2.17;;;13.30;99.90;;;;;;5081608;28;20048;-56
2022/06/28 02:11:00;;;;;;;7.25;1.98;;;13.30;99.90;;;;;;5074225;28;20045;-57
2022/06/28 02:13:27;;;;;;;9.52;2.00;;;13.20;99.90;;;;;;5078856;28;20076;-56
2022/06/28 02:15:54;;;;;;;14.57;2.15;;;13.20;99.90;;;;;;5084678;28;20071;-57
2022/06/28 02:18:21;;;;;;;5.80;1.60;;;13.10;99.90;;;;;;5079073;28;20090;-58
2022/06/28 02:20:47;;;;;;;10.25;2.10;;;13.10;99.90;;;;;;5075474;28;20040;-58
2022/06/28 02:23:14;;;;;;;17.48;2.25;;;13.00;99.90;;;;;;5080632;28;20052;-57
2022/06/28 02:25:41;;;;;;;9.25;2.45;;;13.10;99.90;;;;;;5080224;28;20483;-53
2022/06/28 02:28:08;;;;;;;13.25;2.50;;;13.20;99.90;;;;;;5077511;28;20081;-56
2022/06/28 02:30:35;;;;;;;11.60;2.28;;;13.10;99.90;;;;;;5077480;28;20099;-57
2022/06/28 02:33:01;;;;;;;11.55;1.63;;;13.20;99.90;;;;;;5081520;28;20179;-57
2022/06/28 02:40:59;;;;;;;14.40;1.95;;;13.20;99.90;;;;;;5076956;28;20049;-56
2022/06/28 02:43:26;;;;;;;10.88;2.03;;;13.10;99.90;;;;;;5081676;28;20083;-53
2022/06/28 02:45:53;;;;;;;10.73;1.90;;;13.10;99.90;;;;;;5060946;28;20082;-58
2022/06/28 02:48:20;;;;;;;11.60;1.75;;;13.10;99.90;;;;;;5075532;28;20053;-56
2022/06/28 02:50:46;;;;;;;8.25;2.53;;;13.10;99.90;;;;;;5079763;28;20424;-55
2022/06/28 02:53:13;;;;;;;10.55;2.22;;;13.10;99.90;;;;;;5083034;28;20040;-57
2022/06/28 02:55:40;;;;;;;10.38;1.95;;;13.10;99.90;;;;;;5084308;28;20091;-54
2022/06/28 02:58:07;;;;;;;7.35;1.73;;;13.10;99.90;;;;;;5079846;28;20094;-56
2022/06/28 03:00:34;;;;;;;16.85;2.70;;;13.10;99.90;;;;;;5083983;28;20117;-56
2022/06/28 03:03:00;;;;;;;13.32;2.78;;;13.00;99.90;;;;;;5081619;28;20041;-57
2022/06/28 03:05:27;;;;;;;10.20;2.25;;;13.00;99.90;;;;;;5080447;28;20083;-57
2022/06/28 03:07:54;;;;;;;6.18;1.90;;;13.00;99.90;;;;;;5072759;28;20090;-57
2022/06/28 03:10:21;;;;;;;21.48;4.55;;;13.00;99.90;;;;;;5077815;28;20048;-57
2022/06/28 03:12:48;;;;;;;11.38;1.70;;;13.00;99.90;;;;;;5081901;28;20052;-57
2022/06/28 03:15:14;;;;;;;13.20;1.90;;;13.00;99.90;;;;;;5077908;28;20509;-56
2022/06/28 03:17:46;;;;;;;13.75;2.40;;;13.00;99.90;;;;;;5085828;28;20101;-56
2022/06/28 03:20:13;;;;;;;15.90;2.55;;;12.90;99.90;;;;;;5077691;28;20066;-55
2022/06/28 03:22:40;;;;;;;11.65;2.97;;;12.90;99.90;;;;;;5074916;28;20122;-57
2022/06/28 03:25:08;;;;;;;11.80;1.80;;;13.00;99.90;;;;;;5079847;28;20040;-55
2022/06/28 03:27:35;;;;;;;9.57;1.63;;;12.90;99.90;;;;;;5080616;28;20110;-57
2022/06/28 03:30:03;;;;;;;19.02;5.43;;;12.90;99.90;;;;;;5076572;28;20351;-56
2022/06/28 03:32:30;;;;;;;8.80;1.73;;;12.90;99.90;;;;;;5077548;28;20056;-56
2022/06/28 03:34:57;;;;;;;13.85;2.60;;;12.90;99.90;;;;;;5080386;28;20143;-55
2022/06/28 03:37:23;;;;;;;10.48;3.13;;;12.80;99.90;;;;;;5075691;28;20070;-56
2022/06/28 03:39:50;;;;;;;8.18;1.80;;;12.80;99.90;;;;;;5076231;28;20086;-57
2022/06/28 03:42:17;;;;;;;8.38;1.98;;;12.80;99.90;;;;;;5080250;28;20052;-55
2022/06/28 03:44:44;;;;;;;10.40;2.72;;;12.80;99.90;;;;;;5075861;28;20070;-57
2022/06/28 03:47:11;;;;;;;11.75;2.00;;;12.80;99.90;;;;;;5073805;28;20370;-55
2022/06/28 03:49:37;;;;;;;28.55;3.63;;;12.80;99.90;;;;;;5080692;28;20447;-56
2022/06/28 03:52:04;;;;;;;14.18;1.85;;;12.80;99.90;;;;;;5080009;28;20127;-55
2022/06/28 03:54:31;;;;;;;15.70;2.80;;;12.70;99.90;;;;;;5083586;28;20044;-56
2022/06/28 03:56:58;;;;;;;15.27;2.78;;;12.80;99.90;;;;;;5076666;28;20075;-56
2022/06/28 03:59:25;;;;;;;10.85;2.17;;;12.80;99.90;;;;;;5082758;28;20060;-53
2022/06/28 04:01:51;;;;;;;10.80;2.00;;;12.70;99.90;;;;;;5078967;28;20094;-56
2022/06/28 04:04:18;;;;;;;7.07;1.85;;;12.70;99.90;;;;;;5072802;28;20067;-57
2022/06/28 04:06:45;;;;;;;12.35;2.38;;;12.70;99.90;;;;;;5076290;28;20076;-55
2022/06/28 04:09:12;;;;;;;4.32;1.45;;;12.70;99.90;;;;;;5081616;28;20524;-55
2022/06/28 04:11:39;;;;;;;12.40;3.25;;;12.80;99.90;;;;;;5076275;28;20075;-55
2022/06/28 04:14:06;;;;;;;6.60;1.92;;;12.70;99.90;;;;;;5075799;28;20082;-56
2022/06/28 04:16:33;;;;;;;10.25;2.00;;;12.80;99.90;;;;;;5077498;28;20111;-55
2022/06/28 04:18:59;;;;;;;11.32;2.60;;;12.70;99.90;;;;;;5081636;28;20372;-53
2022/06/28 04:21:29;;;;;;;10.18;2.67;;;12.70;99.90;;;;;;5083894;28;20071;-59
2022/06/28 04:23:56;;;;;;;15.88;2.38;;;12.70;99.90;;;;;;5078977;28;20599;-57
2022/06/28 04:26:22;;;;;;;14.13;2.25;;;12.70;99.90;;;;;;5079368;28;20099;-55
2022/06/28 04:28:49;;;;;;;11.18;1.90;;;12.80;99.90;;;;;;5084823;28;20148;-55
2022/06/28 04:31:17;;;;;;;11.52;2.30;;;12.80;99.90;;;;;;5080250;28;20119;-57
2022/06/28 04:33:44;;;;;;;12.23;1.95;;;12.80;99.90;;;;;;5077421;28;20048;-56
2022/06/28 04:36:11;;;;;;;12.07;2.03;;;12.80;99.90;;;;;;5083496;28;20049;-57
2022/06/28 04:38:40;;;;;;;10.57;1.65;;;12.80;99.90;;;;;;5086978;28;20051;-56
2022/06/28 04:41:07;;;;;;;15.10;3.03;;;12.80;99.90;;;;;;5074246;28;20071;-55
2022/06/28 04:43:34;;;;;;;8.13;1.92;;;12.80;99.90;;;;;;5078937;28;20397;-55
2022/06/28 04:46:01;;;;;;;12.27;1.77;;;12.90;99.90;;;;;;5085197;28;20165;-55
2022/06/28 04:48:27;;;;;;;7.53;2.30;;;12.90;99.90;;;;;;5080919;28;20082;-55
2022/06/28 04:53:29;;;;;;;10.85;1.98;;;12.90;99.90;;;;;;3278712;22;20063;-56
2022/06/28 04:55:56;;;;;;;14.65;2.63;;;13.00;99.90;;;;;;5083231;28;20094;-55
2022/06/28 04:58:23;;;;;;;9.32;2.20;;;13.00;99.90;;;;;;5085397;28;20049;-56
2022/06/28 05:00:50;;;;;;;12.30;2.28;;;13.10;99.90;;;;;;5077913;28;20060;-57
2022/06/28 05:03:38;;;;;;;14.95;4.68;;;13.20;99.90;;;;;;5068209;28;20067;-57
2022/06/28 05:06:04;;;;;;;6.70;1.50;;;13.20;99.90;;;;;;5071370;28;20048;-58
2022/06/28 05:08:31;;;;;;;9.15;2.92;;;13.30;99.90;;;;;;5070783;28;20080;-58
2022/06/28 05:10:58;;;;;;;20.98;3.70;;;13.30;99.90;;;;;;5070123;28;20084;-59
2022/06/28 05:13:25;;;;;;;8.40;2.45;;;13.40;99.90;;;;;;5070461;28;20048;-57
2022/06/28 05:15:52;;;;;;;17.17;1.98;;;13.50;99.90;;;;;;5070648;28;20490;-58
2022/06/28 05:18:19;;;;;;;8.48;2.35;;;13.60;99.90;;;;;;5070051;28;20048;-57
2022/06/28 05:20:45;;;;;;;12.20;2.25;;;13.60;99.90;;;;;;5069787;28;20121;-59
2022/06/28 05:23:12;;;;;;;11.68;1.92;;;13.60;99.90;;;;;;5068774;28;20099;-57
2022/06/28 05:25:39;;;;;;;10.30;1.70;;;13.70;99.90;;;;;;5069753;28;20053;-58
2022/06/28 05:28:06;;;;;;;7.53;1.77;;;13.70;99.90;;;;;;5069151;28;20056;-58
2022/06/28 05:30:33;;;;;;;13.18;1.70;;;13.80;99.90;;;;;;5068792;28;20084;-58
2022/06/28 05:33:01;;;;;;;12.55;2.08;;;13.90;99.90;;;;;;5070596;28;20189;-57
2022/06/28 05:35:28;;;;;;;8.45;1.75;;;13.90;99.90;;;;;;5070474;28;20124;-56
2022/06/28 05:37:55;;;;;;;8.57;1.63;;;14.00;99.90;;;;;;5070639;28;20529;-56
2022/06/28 05:40:21;;;;;;;9.27;2.20;;;14.10;99.90;;;;;;5080874;28;20079;-59
2022/06/28 05:42:48;;;;;;;16.63;2.03;;;14.10;99.90;;;;;;5084392;28;20037;-57
2022/06/28 05:45:15;;;;;;;10.77;2.22;;;14.20;99.90;;;;;;5084366;28;20067;-58
2022/06/28 05:47:42;;;;;;;13.73;2.22;;;14.30;99.90;;;;;;5075186;28;20060;-58
2022/06/28 05:50:08;;;;;;;10.80;1.88;;;14.30;99.90;;;;;;5072853;28;20044;-56
2022/06/28 05:52:35;;;;;;;7.50;2.17;;;14.30;99.90;;;;;;5072937;28;20044;-62
2022/06/28 05:55:03;;;;;;;18.30;3.42;;;14.30;99.90;;;;;;5068173;28;20056;-57
2022/06/28 05:57:30;;;;;;;13.60;2.53;;;14.40;99.90;;;;;;5072590;28;20558;-59
2022/06/28 05:59:57;;;;;;;11.55;1.58;;;14.40;99.90;;;;;;5071878;28;20044;-58
2022/06/28 06:02:23;;;;;;;10.13;2.08;;;14.50;99.90;;;;;;5072945;28;20032;-59
2022/06/28 06:04:50;;;;;;;8.00;1.80;;;14.50;99.90;;;;;;5072634;28;20119;-58
2022/06/28 06:07:17;;;;;;;9.98;1.50;;;14.60;99.90;;;;;;5069673;28;20036;-59
2022/06/28 06:09:44;;;;;;;10.32;2.05;;;14.60;99.90;;;;;;5073450;28;20143;-60
2022/06/28 06:12:11;;;;;;;4.80;1.02;;;14.60;99.90;;;;;;5069819;28;20536;-58
2022/06/28 06:14:38;;;;;;;8.50;2.05;;;14.60;99.90;;;;;;5070105;28;20090;-58
2022/06/28 06:17:05;;;;;;;11.15;1.90;;;14.60;99.90;;;;;;5071700;28;20044;-58
2022/06/28 06:19:31;;;;;;;15.13;2.72;;;14.70;99.90;;;;;;5080217;28;20060;-58
2022/06/28 06:21:58;;;;;;;15.13;3.35;;;14.70;99.90;;;;;;5084659;28;20046;-58
2022/06/28 06:24:25;;;;;;;8.05;2.03;;;14.70;99.90;;;;;;5075528;28;20092;-57
2022/06/28 06:26:52;;;;;;;19.25;3.92;;;14.70;99.90;;;;;;5076070;28;20506;-58
2022/06/28 06:29:19;;;;;;;9.68;1.42;;;14.70;99.90;;;;;;5076399;28;20131;-58
2022/06/28 06:31:45;;;;;;;6.53;1.30;;;14.80;99.90;;;;;;5073436;28;20515;-59
2022/06/28 06:34:14;;;;;;;17.17;2.00;;;14.80;99.90;;;;;;5069312;28;20653;-58
2022/06/28 06:36:44;;;;;;;8.35;1.67;;;14.80;99.90;;;;;;5070944;28;20048;-56
2022/06/28 06:39:11;;;;;;;11.85;1.65;;;14.90;99.90;;;;;;5072581;28;20048;-59
2022/06/28 06:41:38;;;;;;;7.57;1.90;;;15.00;99.90;;;;;;5077745;28;20067;-59
2022/06/28 06:44:04;;;;;;;7.47;1.75;;;15.00;99.90;;;;;;5068810;28;20040;-56
2022/06/28 06:46:31;;;;;;;6.50;2.00;;;15.10;99.90;;;;;;5071436;28;20032;-61
2022/06/28 06:48:58;;;;;;;9.20;1.60;;;15.10;99.90;;;;;;5068066;28;20269;-58
2022/06/28 06:51:25;;;;;;;9.77;2.08;;;15.20;99.90;;;;;;5066725;28;20430;-58
2022/06/28 06:53:52;;;;;;;15.80;2.22;;;15.20;99.90;;;;;;5065522;28;20048;-58
2022/06/28 06:56:19;;;;;;;8.68;1.73;;;15.30;99.90;;;;;;5066812;28;20041;-56
2022/06/28 06:58:46;;;;;;;9.95;1.80;;;15.40;99.90;;;;;;5065526;28;20120;-57
2022/06/28 07:01:13;;;;;;;14.68;3.72;;;15.50;99.90;;;;;;5066907;28;20544;-60
2022/06/28 07:04:03;;;;;;;18.20;2.42;;;15.60;99.90;;;;;;5065784;28;20041;-58
2022/06/28 07:06:30;;;;;;;11.18;2.47;;;15.60;99.90;;;;;;5067894;28;20049;-56
2022/06/28 07:08:57;;;;;;;12.48;2.83;;;15.70;99.90;;;;;;5068738;28;20083;-57
2022/06/28 07:11:24;;;;;;;13.18;3.30;;;15.70;99.90;;;;;;5068811;28;20045;-56
2022/06/28 07:13:51;;;;;;;15.18;4.35;;;15.70;99.90;;;;;;5069072;28;20131;-57
2022/06/28 07:16:17;;;;;;;14.43;3.70;;;15.70;99.90;;;;;;5068554;28;20080;-57
2022/06/28 07:18:44;;;;;;;8.52;1.58;;;15.70;99.90;;;;;;5071973;28;20052;-55
2022/06/28 07:21:12;;;;;;;10.63;1.60;;;15.70;99.90;;;;;;5069837;28;20123;-57
2022/06/28 07:23:38;;;;;;;15.07;3.58;;;15.70;99.90;;;;;;5069412;28;20059;-57
2022/06/28 07:26:05;;;;;;;4.82;1.58;;;15.80;99.90;;;;;;5069601;28;20044;-57
2022/06/28 07:28:32;;;;;;;8.93;1.77;;;15.80;99.90;;;;;;5070248;28;20052;-56
2022/06/28 07:30:59;;;;;;;9.82;1.60;;;15.80;99.90;;;;;;5076113;28;20048;-61
2022/06/28 07:33:29;;;;;;;16.33;2.38;;;15.80;99.90;;;;;;5086359;28;20040;-57
2022/06/28 07:35:56;;;;;;;7.70;1.90;;;15.90;99.90;;;;;;5085380;28;20080;-58
2022/06/28 07:38:23;;;;;;;7.57;1.42;;;16.00;99.90;;;;;;5087357;28;20063;-57
2022/06/28 07:40:50;;;;;;;11.48;2.20;;;16.00;99.90;;;;;;5064302;28;20457;-58
2022/06/28 07:43:16;;;;;;;7.95;1.58;;;16.00;99.90;;;;;;5065560;28;20053;-56
2022/06/28 07:45:44;;;;;;;13.73;2.50;;;16.00;99.90;;;;;;5067104;28;20045;-57
2022/06/28 07:48:10;;;;;;;12.63;2.03;;;16.10;99.90;;;;;;5067330;28;20059;-57
2022/06/28 07:53:23;;;;;;;12.63;1.85;;;16.30;99.90;;;;;;5072674;28;20132;-60
2022/06/28 07:55:50;;;;;;;9.55;2.00;;;16.40;99.90;;;;;;5065256;28;20051;-55
2022/06/28 07:58:22;;;;;;;8.68;2.10;;;16.50;99.90;;;;;;5064974;28;20045;-57
2022/06/28 08:00:48;;;;;;;7.85;1.33;;;16.60;99.90;;;;;;5071239;28;20562;-59
2022/06/28 08:03:15;;;;;;;5.03;1.27;;;16.60;99.90;;;;;;5071421;28;20582;-58
2022/06/28 08:05:42;;;;;;;8.50;1.77;;;16.60;99.90;;;;;;5071567;28;20083;-57
2022/06/28 08:08:09;;;;;;;6.28;1.35;;;16.70;99.90;;;;;;5071539;28;20123;-59
2022/06/28 08:10:37;;;;;;;8.25;1.90;;;16.70;99.90;;;;;;5070381;28;20063;-57
2022/06/28 08:13:04;;;;;;;8.95;2.47;;;16.70;99.90;;;;;;5071059;28;20499;-58
2022/06/28 08:15:30;;;;;;;9.10;1.48;;;16.80;99.90;;;;;;5069739;28;20206;-57
2022/06/28 08:17:57;;;;;;;6.25;1.27;;;16.80;99.90;;;;;;5071276;28;20045;-61
2022/06/28 08:20:24;;;;;;;8.13;1.42;;;16.90;99.90;;;;;;5071444;28;20059;-59
2022/06/28 08:22:51;;;;;;;10.65;1.65;;;17.00;99.90;;;;;;5069480;28;20123;-59
2022/06/28 08:25:19;;;;;;;11.40;4.50;;;17.10;99.90;;;;;;5071358;28;20108;-64
2022/06/28 08:27:46;;;;;;;8.25;1.35;;;17.10;99.90;;;;;;5070657;28;20101;-59
2022/06/28 08:30:13;;;;;;;8.35;1.65;;;17.10;99.90;;;;;;5070452;28;20056;-58
2022/06/28 08:32:40;;;;;;;10.63;1.67;;;17.20;99.90;;;;;;5070342;28;20083;-57
2022/06/28 08:35:07;;;;;;;7.55;1.40;;;17.30;99.90;;;;;;5070496;28;20399;-57
2022/06/28 08:37:34;;;;;;;7.20;1.35;;;17.40;99.90;;;;;;5070427;28;20074;-58
2022/06/28 08:40:01;;;;;;;10.20;1.70;;;17.40;99.90;;;;;;5070279;28;20106;-57
2022/06/28 08:42:28;;;;;;;6.35;1.35;;;17.50;99.90;;;;;;5070256;28;20410;-59
2022/06/28 08:44:59;;;;;;;8.80;1.20;;;17.70;99.90;;;;;;5069071;28;20072;-57
2022/06/28 08:47:29;;;;;;;10.80;1.30;;;17.70;99.90;;;;;;5070536;28;20099;-57
2022/06/28 08:50:40;;;;;;;6.43;1.40;;;17.70;99.90;;;;;;5069527;28;20144;-60
2022/06/28 08:53:09;;;;;;;11.10;1.88;;;17.70;99.70;;;;;;5064578;28;20054;-57
2022/06/28 08:55:36;;;;;;;10.80;2.72;;;17.60;99.90;;;;;;5067457;28;20070;-58
2022/06/28 08:58:07;;;;;;;5.07;1.17;;;17.60;99.90;;;;;;5068730;28;20044;-60
2022/06/28 09:00:35;;;;;;;7.45;1.15;;;17.60;99.90;;;;;;5070335;28;20103;-55
2022/06/28 09:03:01;;;;;;;5.45;1.33;;;17.70;99.90;;;;;;5069063;28;20474;-55
2022/06/28 09:05:28;;;;;;;5.38;1.35;;;17.80;99.90;;;;;;5069631;28;20084;-57
2022/06/28 09:07:56;;;;;;;12.50;2.13;;;17.90;99.90;;;;;;5069988;28;20050;-58
2022/06/28 09:10:23;;;;;;;3.65;1.63;;;18.00;99.90;;;;;;5069915;28;20095;-59
2022/06/28 09:13:12;;;;;;;6.03;1.45;;;18.00;98.70;;;;;;5068654;28;20048;-57
2022/06/28 09:15:45;;;;;;;2.75;1.48;;;18.20;99.30;;;;;;5068936;28;20049;-58
2022/06/28 09:18:13;;;;;;;11.75;2.38;;;18.30;98.90;;;;;;5069471;28;20094;-58
2022/06/28 09:20:40;;;;;;;5.43;0.93;;;18.20;98.90;;;;;;5069499;28;20514;-59
2022/06/28 09:23:23;;;;;;;5.97;2.38;;;18.30;98.70;;;;;;5069889;28;20052;-56
2022/06/28 09:25:50;;;;;;;5.55;1.25;;;18.40;98.50;;;;;;5060939;28;20521;-59
2022/06/28 09:28:28;;;;;;;2.80;0.82;;;18.50;98.20;;;;;;5069694;28;20543;-58
2022/06/28 09:31:17;;;;;;;7.13;1.50;;;18.70;98.10;;;;;;5060228;28;20071;-58
2022/06/28 09:34:03;;;;;;;8.00;1.85;;;18.90;96.30;;;;;;5069909;28;20113;-57
2022/06/28 09:36:35;;;;;;;7.55;1.05;;;18.80;96.20;;;;;;5069744;28;20045;-58
2022/06/28 09:39:16;;;;;;;3.80;0.90;;;18.70;97.20;;;;;;5069595;28;20043;-60
2022/06/28 09:41:44;;;;;;;4.05;0.90;;;18.50;97.40;;;;;;5069853;28;20206;-58
2022/06/28 09:44:31;;;;;;;11.48;1.38;;;18.30;97.80;;;;;;5060140;28;20049;-57
2022/06/28 09:46:58;;;;;;;4.28;0.88;;;18.10;97.90;;;;;;5069630;28;20079;-58
2022/06/28 09:49:32;;;;;;;4.72;1.00;;;18.00;98.50;;;;;;5051474;28;20115;-59
2022/06/28 09:52:00;;;;;;;8.18;1.88;;;18.00;98.50;;;;;;5069113;28;20084;-64
2022/06/28 09:54:28;;;;;;;10.88;2.17;;;18.00;98.90;;;;;;5068874;28;20487;-59
2022/06/28 09:56:55;;;;;;;5.80;1.20;;;18.10;99.00;;;;;;5069267;28;20041;-58
2022/06/28 09:59:24;;;;;;;5.57;1.45;;;18.30;99.00;;;;;;5069221;28;20059;-57
2022/06/28 10:01:52;;;;;;;5.57;1.45;;;18.40;99.10;;;;;;5068150;28;20040;-58
2022/06/28 10:04:19;;;;;;;5.85;1.25;;;18.60;98.70;;;;;;5069147;28;20048;-59
2022/06/28 10:06:46;;;;;;;3.67;0.82;;;18.60;98.10;;;;;;5067336;28;20552;-59
2022/06/28 10:09:13;;;;;;;2.83;0.90;;;18.60;97.90;;;;;;5067747;28;20044;-58
2022/06/28 10:17:36;;;;;;;6.10;1.02;;;18.60;98.10;;;;;;5066416;28;20080;-58
2022/06/28 10:20:04;;;;;;;7.50;1.10;;;18.60;96.50;;;;;;5067545;28;20037;-58
2022/06/28 10:22:31;;;;;;;7.43;1.70;;;18.60;97.90;;;;;;5067305;28;20076;-59
2022/06/28 10:24:59;;;;;;;4.53;0.95;;;18.80;98.10;;;;;;5067262;28;20410;-57
2022/06/28 10:27:27;;;;;;;10.40;2.15;;;18.70;97.70;;;;;;5066787;28;20346;-58
2022/06/28 10:30:08;;;;;;;3.22;0.80;;;18.80;97.90;;;;;;5049474;28;20076;-57
2022/06/28 10:32:44;;;;;;;7.55;1.60;;;18.90;97.40;;;;;;5065101;28;20048;-60
2022/06/28 10:35:36;;;;;;;6.40;1.40;;;18.90;96.70;;;;;;5067238;28;20044;-59
2022/06/28 10:38:09;;;;;;;8.65;1.33;;;18.70;96.80;;;;;;5057851;28;20092;-59
2022/06/28 10:40:42;;;;;;;4.45;1.13;;;18.70;96.90;;;;;;5068775;28;20097;-59
2022/06/28 10:43:13;;;;;;;6.65;1.13;;;18.60;97.40;;;;;;5041371;28;20098;-58
2022/06/28 10:46:04;;;;;;;5.63;1.17;;;18.70;97.90;;;;;;5068270;28;20497;-57
2022/06/28 10:48:50;;;;;;;8.18;1.20;;;18.90;97.20;;;;;;5058957;28;20556;-57
2022/06/28 10:51:17;;;;;;;6.10;1.20;;;19.10;97.40;;;;;;5066807;28;20053;-58
2022/06/28 10:54:06;;;;;;;6.30;0.93;;;19.20;97.20;;;;;;5067363;28;20052;-57
2022/06/28 10:56:41;;;;;;;7.80;1.40;;;19.40;96.70;;;;;;5067900;28;20055;-58
2022/06/28 10:59:18;;;;;;;9.55;1.50;;;19.80;96.30;;;;;;5068300;28;20079;-58
2022/06/28 11:01:51;;;;;;;12.50;1.23;;;20.10;95.90;;;;;;5068277;28;20079;-58
2022/06/28 11:04:23;;;;;;;9.55;1.55;;;20.10;94.60;;;;;;5068104;28;20415;-58
2022/06/28 11:06:53;;;;;;;9.50;1.67;;;20.10;94.50;;;;;;5067993;28;20045;-57
2022/06/28 11:09:51;;;;;;;4.63;1.10;;;20.00;95.60;;;;;;5068091;28;20044;-58
2022/06/28 11:12:38;;;;;;;3.60;1.48;;;20.20;94.70;;;;;;5066529;28;20087;-57
2022/06/28 11:15:09;;;;;;;3.42;1.05;;;20.30;95.00;;;;;;5067978;28;20506;-58
2022/06/28 11:17:37;;;;;;;5.50;0.75;;;20.40;94.50;;;;;;5058689;28;20522;-58
2022/06/28 11:20:12;;;;;;;5.55;1.55;;;20.20;94.20;;;;;;5068058;28;20050;-58
2022/06/28 11:22:47;;;;;;;6.55;0.93;;;20.00;93.30;;;;;;5067752;28;20124;-57
2022/06/28 11:25:16;;;;;;;6.97;1.27;;;20.00;92.30;;;;;;5067116;28;20686;-57
2022/06/28 11:27:51;;;;;;;1.50;0.80;;;20.00;93.70;;;;;;5067316;28;20041;-59
2022/06/28 11:30:19;;;;;;;11.77;1.88;;;19.90;92.20;;;;;;5067917;28;20052;-57
2022/06/28 11:32:50;;;;;;;2.72;0.70;;;19.90;92.50;;;;;;5067567;28;20087;-57
2022/06/28 11:35:18;;;;;;;7.55;1.40;;;20.00;93.10;;;;;;5068028;28;20455;-58
2022/06/28 11:37:47;;;;;;;8.20;0.98;;;20.00;92.30;;;;;;5067601;28;20075;-58
2022/06/28 11:40:15;;;;;;;2.92;0.70;;;20.00;92.20;;;;;;5067672;28;20076;-58
2022/06/28 11:42:46;;;;;;;6.43;1.02;;;20.00;91.70;;;;;;5067876;28;20098;-58
2022/06/28 11:45:13;;;;;;;4.88;1.08;;;20.00;91.50;;;;;;5055685;28;20076;-58
2022/06/28 11:47:44;;;;;;;11.75;2.15;;;19.90;91.60;;;;;;5066323;28;20072;-58
2022/06/28 11:50:18;;;;;;;4.15;0.88;;;19.90;91.80;;;;;;5066133;28;20489;-60
2022/06/28 11:52:46;;;;;;;8.57;1.48;;;20.00;90.60;;;;;;5067900;28;20044;-58
2022/06/28 11:55:14;;;;;;;6.28;1.20;;;20.20;91.10;;;;;;5067030;28;20135;-59
2022/06/28 11:57:41;;;;;;;5.53;0.90;;;20.20;91.30;;;;;;5067780;28;20076;-59
2022/06/28 12:00:08;;;;;;;5.50;0.70;;;20.30;90.90;;;;;;5065812;28;20199;-59
2022/06/28 12:02:55;;;;;;;7.70;1.05;;;20.40;90.50;;;;;;5067514;28;20129;-58
2022/06/28 12:05:30;;;;;;;3.63;1.67;;;20.60;89.70;;;;;;5065976;28;20135;-59
2022/06/28 12:07:57;;;;;;;12.75;0.90;;;20.60;87.10;;;;;;5055737;28;20103;-58
2022/06/28 12:10:28;;;;;;;5.82;1.20;;;20.60;89.60;;;;;;5066936;28;20574;-58
2022/06/28 12:12:56;;;;;;;3.72;1.10;;;20.60;89.40;;;;;;5070057;28;20123;-56
2022/06/28 12:15:32;;;;;;;2.20;0.60;;;20.70;88.90;;;;;;5069815;28;20128;-58
2022/06/28 12:18:05;;;;;;;6.88;0.88;;;20.80;86.00;;;;;;5067546;28;20044;-61
2022/06/28 12:20:33;;;;;;;1.93;0.90;;;20.90;84.90;;;;;;4714322;28;9999760;-59
2022/06/28 12:23:04;;;;;;;4.75;0.80;;;20.90;84.40;;;;;;5061225;28;20079;-60
2022/06/28 12:25:32;;;;;;;5.65;1.48;;;21.00;85.00;;;;;;5064314;28;20128;-59
2022/06/28 12:28:00;;;;;;;3.33;0.93;;;21.20;85.30;;;;;;5063088;28;20104;-60
2022/06/28 12:30:27;;;;;;;5.95;0.98;;;21.30;84.00;;;;;;5062711;28;20419;-60
2022/06/28 12:32:58;;;;;;;1.88;0.65;;;21.50;84.00;;;;;;5064502;28;20056;-59
2022/06/28 12:35:25;;;;;;;3.90;1.23;;;21.50;82.50;;;;;;5060551;28;20056;-59
2022/06/28 12:37:53;;;;;;;4.25;1.05;;;21.60;82.10;;;;;;5066877;28;20497;-59
2022/06/28 12:40:21;;;;;;;2.63;0.90;;;21.80;81.70;;;;;;5067726;28;20506;-59
2022/06/28 12:42:48;;;;;;;2.15;0.70;;;21.90;79.50;;;;;;5067691;28;20079;-59
2022/06/28 12:45:15;;;;;;;3.72;1.17;;;21.90;78.80;;;;;;5067870;28;20471;-59
2022/06/28 12:47:42;;;;;;;5.80;1.50;;;21.80;78.80;;;;;;5067616;28;20098;-59
2022/06/28 12:50:13;;;;;;;8.18;1.80;;;21.90;76.50;;;;;;5067567;28;20087;-58
2022/06/28 12:52:41;;;;;;;1.80;0.80;;;21.80;76.80;;;;;;5066374;28;20246;-59
2022/06/28 12:55:10;;;;;;;8.88;0.77;;;21.80;77.20;;;;;;5068639;28;20430;-59
2022/06/28 12:57:37;;;;;;;3.30;0.85;;;21.90;75.20;;;;;;5066342;28;20051;-58
2022/06/28 13:00:14;;;;;;;1.60;0.60;;;21.80;76.00;;;;;;5067452;28;20067;-59
2022/06/28 13:02:46;;;;;;;5.90;1.67;;;21.80;74.00;;;;;;5067542;28;20052;-58
2022/06/28 13:05:13;;;;;;;3.72;0.80;;;21.80;76.80;;;;;;5067504;28;20136;-58
2022/06/28 13:07:41;;;;;;;4.20;1.63;;;21.80;75.50;;;;;;5066979;28;20106;-58
2022/06/28 13:10:09;;;;;;;4.45;0.73;;;21.90;76.30;;;;;;5066930;28;20135;-58
2022/06/28 13:12:36;;;;;;;6.18;1.33;;;22.10;75.50;;;;;;5070296;28;20098;-58